Time;durP1;ratioP1;P1;durP2;ratioP2;P2;SDS_P1;SDS_P2;PMS_P1;PMS_P2;Temp;Humidity;BMP_temperature;BMP_pressure;BME280_temperature;BME280_humidity;BME280_pressure;Samples;Min_cycle;Max_cycle;Signal;HPM_P1;HPM_P2
2021/03/31 05:50:43;;;;;;;12.23;7.35;;;;;;;;;;5939992;23;20054;-80
2021/03/31 05:53:09;;;;;;;9.25;7.13;;;;;;;;;;5004123;28;20109;-80
2021/03/31 05:55:36;;;;;;;16.80;7.63;;;;;;;;;;5008909;28;20022;-79
2021/03/31 05:58:03;;;;;;;15.55;7.90;;;;;;;;;;5014719;28;20028;-79
2021/03/31 06:00:30;;;;;;;14.68;8.15;;;;;;;;;;5014473;28;20018;-79
2021/03/31 06:03:29;;;;;;;11.57;7.15;;;;;;;;;;5001137;28;20033;-81
2021/03/31 06:06:01;;;;;;;12.45;7.72;;;;;;;;;;5013343;28;20042;-81
2021/03/31 06:08:47;;;;;;;11.50;7.38;;;;;;;;;;5016339;28;20033;-82
2021/03/31 06:11:20;;;;;;;15.15;7.45;;;;;;;;;;5011858;28;20065;-82
2021/03/31 06:14:11;;;;;;;12.77;7.55;;;;;;;;;;4996623;28;20026;-83
2021/03/31 06:16:47;;;;;;;12.18;7.80;;;;;;;;;;4979532;28;20058;-81
2021/03/31 06:19:21;;;;;;;11.75;7.68;;;;;;;;;;4956978;28;20018;-82
2021/03/31 06:22:36;;;;;;;11.68;8.48;;;;;;;;;;4994090;28;20043;-82
2021/03/31 06:25:17;;;;;;;18.08;9.07;;;;;;;;;;5007075;28;20026;-82
2021/03/31 06:28:01;;;;;;;12.52;8.15;;;;;;;;;;5006816;28;20046;-81
2021/03/31 06:30:35;;;;;;;13.45;8.65;;;;;;;;;;4981632;28;20033;-81
2021/03/31 06:33:03;;;;;;;15.00;8.82;;;;;;;;;;4989199;28;20031;-80
2021/03/31 06:35:31;;;;;;;19.42;9.32;;;;;;;;;;4976547;28;20034;-81
2021/03/31 06:38:08;;;;;;;12.65;8.05;;;;;;;;;;5003186;28;20038;-81
2021/03/31 06:40:45;;;;;;;15.68;8.30;;;;;;;;;;4998654;28;20022;-81
2021/03/31 06:43:29;;;;;;;12.40;7.55;;;;;;;;;;5004515;28;20044;-81
2021/03/31 06:46:04;;;;;;;14.15;8.13;;;;;;;;;;4992655;28;20069;-81
2021/03/31 06:48:44;;;;;;;14.15;6.93;;;;;;;;;;4997530;28;20019;-81
2021/03/31 06:51:34;;;;;;;11.70;7.10;;;;;;;;;;5029176;28;20034;-80
2021/03/31 06:54:22;;;;;;;12.80;7.18;;;;;;;;;;5006351;28;20026;-81
2021/03/31 06:56:58;;;;;;;16.23;7.72;;;;;;;;;;4998835;28;20057;-81
2021/03/31 06:59:33;;;;;;;11.52;7.60;;;;;;;;;;4979712;28;20022;-80
2021/03/31 07:02:07;;;;;;;16.52;7.63;;;;;;;;;;4971617;28;20192;-81
2021/03/31 07:04:37;;;;;;;11.10;6.90;;;;;;;;;;5003482;28;20034;-81
2021/03/31 07:07:12;;;;;;;18.88;7.75;;;;;;;;;;5007443;28;20031;-82
2021/03/31 07:09:44;;;;;;;11.18;7.47;;;;;;;;;;5000618;28;20059;-81
2021/03/31 07:12:16;;;;;;;11.25;8.13;;;;;;;;;;5006335;28;20038;-81
2021/03/31 07:14:44;;;;;;;16.30;8.23;;;;;;;;;;5002157;28;20026;-81
2021/03/31 07:17:11;;;;;;;15.85;8.00;;;;;;;;;;5001030;28;20049;-81
2021/03/31 15:02:15;;;;;;;7.82;2.28;;;;;;;;;;3229388;22;20041;-85
2021/03/31 15:04:44;;;;;;;8.68;2.25;;;;;;;;;;5052740;28;20033;-85
2021/03/31 15:07:10;;;;;;;6.43;1.77;;;;;;;;;;5019941;28;20030;-84
2021/03/31 15:09:37;;;;;;;3.58;1.70;;;;;;;;;;5036630;28;20111;-85
2021/03/31 15:12:03;;;;;;;10.15;2.33;;;;;;;;;;5036112;28;20095;-83
2021/03/31 15:14:30;;;;;;;15.38;2.63;;;;;;;;;;5015947;28;20032;-82
2021/03/31 15:16:56;;;;;;;6.50;1.70;;;;;;;;;;5013129;28;20057;-85
2021/03/31 15:19:35;;;;;;;4.82;1.63;;;;;;;;;;5031840;28;20107;-84
2021/03/31 15:24:45;;;;;;;9.75;1.90;;;;;;;;;;5013720;28;20123;-83
2021/03/31 15:27:11;;;;;;;7.13;1.85;;;;;;;;;;5014356;28;20061;-85
2021/03/31 15:29:37;;;;;;;5.78;1.67;;;;;;;;;;4999658;28;20130;-85
2021/03/31 15:32:04;;;;;;;6.10;1.80;;;;;;;;;;5016839;28;20556;-84
2021/03/31 15:34:30;;;;;;;5.57;1.67;;;;;;;;;;5012448;28;20148;-85
2021/03/31 15:36:55;;;;;;;3.85;1.55;;;;;;;;;;4997241;28;20108;-84
2021/03/31 15:39:21;;;;;;;9.30;2.15;;;;;;;;;;5015220;28;20089;-85
2021/03/31 15:41:47;;;;;;;7.15;1.98;;;;;;;;;;4999404;28;20444;-85
2021/03/31 15:44:14;;;;;;;4.78;2.00;;;;;;;;;;5008744;28;20038;-83
2021/03/31 15:46:46;;;;;;;5.13;1.70;;;;;;;;;;5013598;28;20029;-86
2021/03/31 15:49:13;;;;;;;6.97;1.80;;;;;;;;;;5016253;28;20535;-84
2021/03/31 15:51:38;;;;;;;4.97;1.77;;;;;;;;;;5015773;28;20027;-83
2021/03/31 15:54:04;;;;;;;6.22;1.60;;;;;;;;;;5032133;28;20030;-84
2021/03/31 15:56:33;;;;;;;4.28;1.90;;;;;;;;;;4994466;28;20044;-84
2021/03/31 15:58:59;;;;;;;5.18;2.03;;;;;;;;;;5012960;28;20032;-79
2021/03/31 16:01:30;;;;;;;7.22;1.63;;;;;;;;;;5031118;28;20017;-82
2021/03/31 16:04:12;;;;;;;5.07;1.90;;;;;;;;;;5028929;28;20079;-81
2021/03/31 16:09:21;;;;;;;7.97;1.60;;;;;;;;;;5030823;28;20029;-82
2021/03/31 16:11:47;;;;;;;6.57;1.77;;;;;;;;;;5012780;28;20030;-80
2021/03/31 16:14:12;;;;;;;5.30;1.58;;;;;;;;;;5028892;28;20056;-81
2021/03/31 16:16:38;;;;;;;10.02;1.95;;;;;;;;;;5047588;28;20733;-82
2021/03/31 16:19:03;;;;;;;7.65;2.03;;;;;;;;;;5014500;28;20389;-83
2021/03/31 16:21:29;;;;;;;8.82;3.10;;;;;;;;;;4998874;28;20397;-76
2021/03/31 16:23:54;;;;;;;10.07;4.20;;;;;;;;;;5031028;28;20029;-77
2021/03/31 16:26:20;;;;;;;4.25;2.08;;;;;;;;;;5031283;28;20116;-77
2021/03/31 16:28:54;;;;;;;7.68;2.35;;;;;;;;;;5028364;28;20498;-77
2021/03/31 16:31:26;;;;;;;5.45;1.95;;;;;;;;;;5040392;28;20033;-77
2021/03/31 16:33:53;;;;;;;8.13;1.90;;;;;;;;;;5012385;28;20022;-77
2021/03/31 16:36:19;;;;;;;5.32;1.95;;;;;;;;;;5029569;28;20022;-80
2021/03/31 16:38:44;;;;;;;6.13;2.35;;;;;;;;;;5030314;28;20036;-77
2021/03/31 16:41:10;;;;;;;4.32;2.10;;;;;;;;;;5022880;28;20045;-78
2021/03/31 16:43:35;;;;;;;7.97;1.80;;;;;;;;;;5031426;28;20500;-77
2021/03/31 16:46:02;;;;;;;5.10;1.55;;;;;;;;;;5030688;28;20497;-77
2021/03/31 16:48:27;;;;;;;6.03;2.03;;;;;;;;;;5029183;28;20037;-78
2021/03/31 16:50:52;;;;;;;3.55;2.05;;;;;;;;;;5024340;28;20096;-78
2021/03/31 16:53:18;;;;;;;5.75;2.00;;;;;;;;;;5022838;28;20045;-78
2021/03/31 16:55:44;;;;;;;5.82;2.05;;;;;;;;;;5022670;28;20037;-79
2021/03/31 16:58:09;;;;;;;4.00;2.17;;;;;;;;;;5017619;28;20076;-77
2021/03/31 17:00:34;;;;;;;5.65;1.70;;;;;;;;;;5040825;28;20024;-77
2021/03/31 17:03:00;;;;;;;4.88;1.90;;;;;;;;;;5026027;28;20123;-80
2021/03/31 17:05:26;;;;;;;6.47;2.22;;;;;;;;;;5006140;28;20379;-77
2021/03/31 17:07:52;;;;;;;6.35;2.15;;;;;;;;;;5030831;28;20092;-77
2021/03/31 17:10:19;;;;;;;7.10;2.10;;;;;;;;;;5030207;28;20021;-76
2021/03/31 17:12:45;;;;;;;4.60;2.50;;;;;;;;;;5010493;28;20034;-77
2021/03/31 17:15:11;;;;;;;7.82;2.33;;;;;;;;;;5025949;28;20079;-77
2021/03/31 17:17:36;;;;;;;7.68;3.55;;;;;;;;;;5022458;28;20037;-80
2021/03/31 17:20:04;;;;;;;7.43;2.15;;;;;;;;;;5016434;28;20025;-80
2021/03/31 17:22:29;;;;;;;7.95;3.40;;;;;;;;;;5010876;28;20057;-80
2021/03/31 17:24:55;;;;;;;7.43;2.60;;;;;;;;;;5021072;28;20065;-79
2021/03/31 17:27:21;;;;;;;11.10;6.53;;;;;;;;;;5024928;28;20065;-79
2021/03/31 17:29:47;;;;;;;4.30;2.42;;;;;;;;;;5013761;28;20363;-79
2021/03/31 17:32:14;;;;;;;7.28;1.98;;;;;;;;;;5047168;28;20087;-81
2021/03/31 17:34:40;;;;;;;4.80;1.80;;;;;;;;;;5021983;28;20112;-80
2021/03/31 17:37:05;;;;;;;7.80;2.10;;;;;;;;;;5003731;28;20061;-81
2021/03/31 17:39:31;;;;;;;4.95;2.30;;;;;;;;;;5026561;28;20414;-80
2021/03/31 17:41:58;;;;;;;7.20;2.30;;;;;;;;;;5035853;28;20045;-80
2021/03/31 17:44:24;;;;;;;6.05;2.20;;;;;;;;;;5029122;28;20037;-81
2021/03/31 17:46:50;;;;;;;7.28;2.50;;;;;;;;;;5034738;28;20068;-80
2021/03/31 17:49:16;;;;;;;4.53;2.20;;;;;;;;;;5029618;28;20029;-81
2021/03/31 17:51:43;;;;;;;7.07;2.35;;;;;;;;;;5016235;28;20053;-80
2021/03/31 17:54:09;;;;;;;4.32;2.08;;;;;;;;;;5021775;28;20061;-80
2021/03/31 17:56:35;;;;;;;7.22;2.20;;;;;;;;;;5000966;28;20026;-79
2021/03/31 17:59:00;;;;;;;5.57;2.33;;;;;;;;;;5032930;28;20034;-81
2021/03/31 18:01:26;;;;;;;4.43;1.98;;;;;;;;;;5032149;28;20053;-79
2021/03/31 18:03:52;;;;;;;6.35;2.22;;;;;;;;;;4992007;28;20087;-79
2021/03/31 18:06:22;;;;;;;5.15;1.92;;;;;;;;;;5001519;28;20049;-78
2021/03/31 18:09:11;;;;;;;7.30;2.50;;;;;;;;;;5013381;28;20072;-79
2021/03/31 18:11:38;;;;;;;6.55;2.00;;;;;;;;;;5025560;28;20054;-77
2021/03/31 18:14:05;;;;;;;6.05;2.60;;;;;;;;;;5028379;28;20026;-80
2021/03/31 18:16:31;;;;;;;8.32;2.35;;;;;;;;;;5011053;28;20131;-79
2021/03/31 18:18:58;;;;;;;11.95;2.30;;;;;;;;;;5010710;28;20025;-81
2021/03/31 18:21:24;;;;;;;6.70;2.80;;;;;;;;;;4991624;28;20030;-81
2021/03/31 18:23:50;;;;;;;7.95;3.40;;;;;;;;;;4998117;28;20049;-81
2021/03/31 18:26:15;;;;;;;6.68;2.90;;;;;;;;;;5011356;28;20141;-81
2021/03/31 18:28:44;;;;;;;7.20;3.88;;;;;;;;;;4993242;28;20076;-79
2021/03/31 18:31:12;;;;;;;8.98;3.08;;;;;;;;;;5011002;28;20083;-81
2021/03/31 18:33:41;;;;;;;4.47;2.50;;;;;;;;;;5010996;28;20026;-80
2021/03/31 18:36:08;;;;;;;7.68;2.55;;;;;;;;;;4994381;28;20029;-80
2021/03/31 18:38:36;;;;;;;9.00;2.50;;;;;;;;;;4995351;28;20025;-80
2021/03/31 18:41:58;;;;;;;6.22;2.38;;;;;;;;;;4996087;28;20029;-79
2021/03/31 18:43:52;;;;;;;5.55;2.10;;;;;;;;;;4998900;28;20037;-81
2021/03/31 18:46:20;;;;;;;7.00;2.78;;;;;;;;;;5025270;28;20493;-81
2021/03/31 18:48:50;;;;;;;6.05;2.40;;;;;;;;;;5015858;28;20045;-81
2021/03/31 18:51:18;;;;;;;6.72;3.13;;;;;;;;;;5016555;28;20033;-81
2021/03/31 18:53:43;;;;;;;7.15;2.60;;;;;;;;;;5031035;28;20030;-79
2021/03/31 18:56:10;;;;;;;7.20;2.75;;;;;;;;;;5007928;28;20044;-80
2021/03/31 18:58:38;;;;;;;7.35;3.08;;;;;;;;;;5016558;28;20022;-80
2021/03/31 19:01:04;;;;;;;6.60;2.90;;;;;;;;;;5032105;28;20113;-79
2021/03/31 19:03:29;;;;;;;9.75;2.53;;;;;;;;;;5030167;28;20046;-79
2021/03/31 19:05:58;;;;;;;4.50;2.72;;;;;;;;;;5028476;28;20045;-79
2021/03/31 19:11:06;;;;;;;5.55;2.60;;;;;;;;;;5031119;28;20025;-80
2021/03/31 19:13:33;;;;;;;6.72;2.92;;;;;;;;;;5028038;28;20083;-80
2021/03/31 19:15:59;;;;;;;6.15;3.00;;;;;;;;;;5028755;28;20576;-79
2021/03/31 19:18:26;;;;;;;7.43;3.10;;;;;;;;;;5016751;28;20033;-79
2021/03/31 19:20:52;;;;;;;5.50;2.90;;;;;;;;;;5034961;28;20017;-80
2021/03/31 19:23:19;;;;;;;5.10;2.90;;;;;;;;;;5033748;28;20033;-80
2021/03/31 19:25:45;;;;;;;9.50;2.95;;;;;;;;;;5017496;28;20116;-79
2021/03/31 19:28:12;;;;;;;5.88;3.05;;;;;;;;;;5037380;28;20027;-80
2021/03/31 19:30:37;;;;;;;5.07;2.70;;;;;;;;;;5015185;28;20040;-80
2021/03/31 19:33:04;;;;;;;8.25;3.22;;;;;;;;;;5033627;28;20471;-79
2021/03/31 19:35:31;;;;;;;5.65;2.45;;;;;;;;;;5009456;28;20028;-80
2021/03/31 19:37:58;;;;;;;6.18;2.40;;;;;;;;;;5036914;28;20397;-81
2021/03/31 19:40:25;;;;;;;5.78;2.45;;;;;;;;;;5034879;28;20151;-81
2021/03/31 19:42:57;;;;;;;7.38;2.50;;;;;;;;;;5032480;28;20042;-79
2021/03/31 19:45:30;;;;;;;5.85;2.38;;;;;;;;;;5032941;28;20374;-80
2021/03/31 19:47:56;;;;;;;7.57;2.60;;;;;;;;;;5033980;28;20033;-80
2021/03/31 19:50:25;;;;;;;6.13;2.67;;;;;;;;;;5029145;28;20025;-80
2021/03/31 19:52:59;;;;;;;3.88;2.33;;;;;;;;;;5013513;28;20034;-80
2021/03/31 19:55:24;;;;;;;4.65;2.35;;;;;;;;;;5019076;28;20108;-81
2021/03/31 19:57:50;;;;;;;6.03;2.42;;;;;;;;;;5034686;28;20021;-80
2021/03/31 20:00:16;;;;;;;4.63;2.25;;;;;;;;;;5033197;28;20053;-81
2021/03/31 20:02:41;;;;;;;4.45;2.40;;;;;;;;;;5033041;28;20414;-80
2021/03/31 20:05:10;;;;;;;4.13;2.10;;;;;;;;;;5032410;28;20032;-80
2021/03/31 20:07:40;;;;;;;7.10;2.58;;;;;;;;;;5032621;28;20100;-80
2021/03/31 20:10:09;;;;;;;3.05;1.98;;;;;;;;;;5035426;28;20029;-81
2021/03/31 20:12:40;;;;;;;4.55;2.35;;;;;;;;;;5015714;28;20025;-81
2021/03/31 20:15:06;;;;;;;7.07;2.40;;;;;;;;;;5018014;28;20116;-81
2021/03/31 20:17:37;;;;;;;6.25;2.47;;;;;;;;;;5031731;28;20035;-80
2021/03/31 20:20:06;;;;;;;7.75;2.55;;;;;;;;;;5033395;28;20032;-81
2021/03/31 20:22:31;;;;;;;5.47;2.60;;;;;;;;;;5022666;28;20034;-81
2021/03/31 20:24:58;;;;;;;7.55;2.47;;;;;;;;;;5017485;28;20032;-81
2021/03/31 20:27:24;;;;;;;6.07;2.20;;;;;;;;;;5008520;28;20420;-81
2021/03/31 20:29:49;;;;;;;6.72;2.17;;;;;;;;;;5022122;28;20091;-81
2021/03/31 20:32:15;;;;;;;7.72;2.10;;;;;;;;;;5026321;28;20037;-80
2021/03/31 20:34:51;;;;;;;5.40;2.20;;;;;;;;;;5020500;28;20405;-80
2021/03/31 20:37:17;;;;;;;5.32;2.20;;;;;;;;;;5029866;28;20025;-81
2021/03/31 20:39:43;;;;;;;4.60;2.25;;;;;;;;;;5018215;28;20120;-80
2021/03/31 20:42:09;;;;;;;4.38;2.42;;;;;;;;;;5032022;28;20108;-80
2021/03/31 20:44:34;;;;;;;5.18;2.40;;;;;;;;;;5020648;28;20106;-80
2021/03/31 20:47:00;;;;;;;6.00;2.22;;;;;;;;;;5024833;28;20104;-79
2021/03/31 20:49:26;;;;;;;6.70;2.15;;;;;;;;;;5047746;28;20029;-81
2021/03/31 20:51:52;;;;;;;5.60;2.05;;;;;;;;;;5016144;28;20079;-80
2021/03/31 20:54:17;;;;;;;5.93;2.58;;;;;;;;;;5011137;28;20030;-80
2021/03/31 20:56:43;;;;;;;4.93;2.22;;;;;;;;;;5032331;28;20497;-79
2021/03/31 20:59:09;;;;;;;6.88;2.63;;;;;;;;;;5030772;28;20022;-80
2021/03/31 21:01:34;;;;;;;5.80;2.08;;;;;;;;;;5029072;28;20049;-80
2021/03/31 21:04:00;;;;;;;5.40;2.05;;;;;;;;;;5014913;28;20114;-81
2021/03/31 21:06:25;;;;;;;5.63;2.38;;;;;;;;;;5014873;28;20025;-80
2021/03/31 21:08:51;;;;;;;5.88;2.60;;;;;;;;;;5033216;28;20469;-80
2021/03/31 21:11:16;;;;;;;5.15;2.28;;;;;;;;;;5013324;28;20072;-80
2021/03/31 21:13:42;;;;;;;8.57;2.60;;;;;;;;;;5023272;28;20033;-81
2021/03/31 21:16:07;;;;;;;6.25;2.20;;;;;;;;;;5047680;28;20026;-80
2021/03/31 21:18:33;;;;;;;5.50;2.22;;;;;;;;;;5031897;28;20037;-80
2021/03/31 21:20:58;;;;;;;5.47;2.80;;;;;;;;;;5014941;28;20029;-81
2021/03/31 21:23:24;;;;;;;4.93;2.40;;;;;;;;;;5015065;28;20465;-82
2021/03/31 21:25:49;;;;;;;6.80;2.60;;;;;;;;;;5010099;28;20026;-81
2021/03/31 21:28:15;;;;;;;5.30;2.63;;;;;;;;;;5031036;28;20347;-80
2021/03/31 21:30:40;;;;;;;4.57;2.28;;;;;;;;;;5020557;28;20021;-80
2021/03/31 21:33:06;;;;;;;8.00;2.60;;;;;;;;;;5020104;28;20036;-81
2021/03/31 21:35:31;;;;;;;6.93;2.40;;;;;;;;;;5030929;28;20021;-80
2021/03/31 21:37:56;;;;;;;5.15;2.70;;;;;;;;;;5030871;28;20025;-80
2021/03/31 21:40:22;;;;;;;6.38;2.65;;;;;;;;;;5027117;28;20034;-80
2021/03/31 21:42:47;;;;;;;4.40;2.60;;;;;;;;;;4996090;28;20026;-79
2021/03/31 21:45:13;;;;;;;9.40;2.67;;;;;;;;;;5031473;28;20024;-81
2021/03/31 21:47:39;;;;;;;5.25;2.35;;;;;;;;;;5024888;28;20517;-80
2021/03/31 21:50:05;;;;;;;5.80;2.40;;;;;;;;;;5032185;28;20062;-80
2021/03/31 21:52:31;;;;;;;8.63;2.83;;;;;;;;;;5031381;28;20017;-81
2021/03/31 21:54:56;;;;;;;4.43;2.67;;;;;;;;;;5031790;28;20527;-80
2021/03/31 21:57:22;;;;;;;3.50;2.53;;;;;;;;;;5030838;28;20029;-80
2021/03/31 21:59:47;;;;;;;7.38;2.63;;;;;;;;;;5014895;28;20017;-80
2021/03/31 22:02:12;;;;;;;8.68;2.85;;;;;;;;;;5014077;28;20048;-80
2021/03/31 22:04:38;;;;;;;4.47;2.80;;;;;;;;;;5022782;28;20022;-82
2021/03/31 22:07:04;;;;;;;4.95;2.47;;;;;;;;;;5030054;28;20022;-81
2021/03/31 22:09:29;;;;;;;4.80;2.60;;;;;;;;;;5047018;28;20072;-79
2021/03/31 22:11:57;;;;;;;8.10;2.72;;;;;;;;;;5030778;28;20041;-79
2021/03/31 22:14:23;;;;;;;5.43;2.70;;;;;;;;;;5015507;28;20565;-82
2021/03/31 22:16:49;;;;;;;4.00;2.13;;;;;;;;;;5031731;28;20079;-80
2021/03/31 22:19:14;;;;;;;5.28;2.28;;;;;;;;;;5016414;28;20029;-78
2021/03/31 22:21:40;;;;;;;6.38;2.17;;;;;;;;;;5023165;28;20041;-80
2021/03/31 22:24:06;;;;;;;5.90;2.65;;;;;;;;;;5036308;28;20044;-79
2021/03/31 22:26:32;;;;;;;5.60;2.60;;;;;;;;;;5052000;28;20029;-80
2021/03/31 22:28:58;;;;;;;4.70;2.20;;;;;;;;;;5051596;28;20462;-81
2021/03/31 22:31:24;;;;;;;5.22;2.53;;;;;;;;;;5034320;28;20040;-80
2021/03/31 22:33:59;;;;;;;4.53;2.67;;;;;;;;;;5014377;28;20104;-79
2021/03/31 22:36:26;;;;;;;7.10;2.65;;;;;;;;;;5033791;28;20025;-80
2021/03/31 22:38:52;;;;;;;6.30;2.55;;;;;;;;;;5035961;28;20108;-80
2021/03/31 22:41:18;;;;;;;7.38;2.33;;;;;;;;;;5017863;28;20030;-79
2021/03/31 22:43:44;;;;;;;4.03;2.38;;;;;;;;;;5036163;28;20025;-79
2021/03/31 22:46:10;;;;;;;6.00;2.47;;;;;;;;;;5034891;28;20171;-80
2021/03/31 22:48:36;;;;;;;5.80;2.45;;;;;;;;;;5033852;28;20036;-80
2021/03/31 22:51:02;;;;;;;4.30;2.17;;;;;;;;;;5034026;28;20017;-80
2021/03/31 22:53:33;;;;;;;5.45;2.67;;;;;;;;;;5022099;28;20037;-80
2021/03/31 22:56:00;;;;;;;7.03;2.17;;;;;;;;;;5014451;28;20079;-79
2021/03/31 22:58:32;;;;;;;4.88;2.58;;;;;;;;;;5031241;28;20037;-79
2021/03/31 23:00:59;;;;;;;4.72;2.30;;;;;;;;;;5034308;28;20033;-79
2021/03/31 23:03:30;;;;;;;5.45;2.45;;;;;;;;;;5034576;28;20053;-81
2021/03/31 23:05:56;;;;;;;7.45;2.95;;;;;;;;;;5018229;28;20041;-78
2021/03/31 23:08:22;;;;;;;5.60;2.53;;;;;;;;;;5029272;28;20022;-80
2021/03/31 23:10:48;;;;;;;7.13;2.80;;;;;;;;;;5039434;28;20082;-80
2021/03/31 23:13:13;;;;;;;4.88;2.38;;;;;;;;;;5034264;28;20025;-79
2021/03/31 23:15:39;;;;;;;3.28;2.20;;;;;;;;;;5034627;28;20053;-79
2021/03/31 23:18:04;;;;;;;9.07;2.33;;;;;;;;;;5033801;28;20029;-80
2021/03/31 23:20:30;;;;;;;7.13;2.63;;;;;;;;;;5033721;28;20044;-80
2021/03/31 23:22:55;;;;;;;3.92;2.30;;;;;;;;;;5017036;28;20033;-80
2021/03/31 23:25:21;;;;;;;5.00;2.47;;;;;;;;;;5033783;28;20029;-78
2021/03/31 23:27:46;;;;;;;5.43;2.58;;;;;;;;;;5033987;28;20056;-77
2021/03/31 23:30:16;;;;;;;5.00;2.70;;;;;;;;;;5016486;28;20024;-79
2021/03/31 23:32:42;;;;;;;5.50;2.50;;;;;;;;;;5014420;28;20160;-77
2021/03/31 23:35:08;;;;;;;4.88;2.53;;;;;;;;;;5014162;28;20025;-80
2021/03/31 23:37:34;;;;;;;6.10;2.35;;;;;;;;;;5015799;28;20036;-79
2021/03/31 23:39:59;;;;;;;5.22;2.55;;;;;;;;;;5033619;28;20036;-80
2021/03/31 23:42:25;;;;;;;3.13;2.13;;;;;;;;;;5016961;28;20026;-79
2021/03/31 23:44:50;;;;;;;6.43;2.45;;;;;;;;;;5033683;28;20496;-79
2021/03/31 23:47:16;;;;;;;5.30;2.90;;;;;;;;;;5049824;28;20029;-80
2021/03/31 23:49:42;;;;;;;5.50;2.05;;;;;;;;;;5033704;28;20029;-79
2021/03/31 23:52:07;;;;;;;6.00;2.88;;;;;;;;;;5032829;28;20036;-78
2021/03/31 23:54:33;;;;;;;4.22;2.65;;;;;;;;;;5016096;28;20052;-79
2021/03/31 23:56:58;;;;;;;4.22;2.40;;;;;;;;;;5033817;28;20053;-80
2021/03/31 23:59:24;;;;;;;4.18;2.50;;;;;;;;;;5032762;28;20462;-79
